createdAt,value
2023-02-09T04:00:15.609Z,21.13
2023-02-09T04:02:46.279Z,21.27
2023-02-09T04:05:14.447Z,22.37
2023-02-09T04:07:42.607Z,20.07
2023-02-09T04:10:11.156Z,22.47
2023-02-09T04:12:38.956Z,19.97
2023-02-09T04:15:07.357Z,18.40
2023-02-09T04:17:35.181Z,19.53
2023-02-09T04:20:04.932Z,21.87
2023-02-09T04:22:33.775Z,20.73
2023-02-09T04:25:27.422Z,18.20
2023-02-09T04:27:55.316Z,21.80
2023-02-09T04:30:24.258Z,22.03
2023-02-09T04:32:52.798Z,20.03
2023-02-09T04:35:21.960Z,22.10
2023-02-09T04:37:50.832Z,20.23
2023-02-09T04:40:18.912Z,19.87
2023-02-09T04:42:46.932Z,21.43
2023-02-09T04:45:14.822Z,20.97
2023-02-09T04:47:42.619Z,19.90
2023-02-09T04:50:10.770Z,23.20
2023-02-09T04:52:39.929Z,20.30
2023-02-09T04:55:08.089Z,22.40
2023-02-09T04:57:54.624Z,18.93
2023-02-09T05:00:22.580Z,23.00
2023-02-09T05:02:50.382Z,22.27
2023-02-09T05:05:19.636Z,22.67
2023-02-09T05:07:48.904Z,22.20
2023-02-09T05:10:17.302Z,21.53
2023-02-09T05:12:45.199Z,20.97
2023-02-09T05:15:13.030Z,21.37
2023-02-09T05:17:40.905Z,20.43
2023-02-09T05:20:10.112Z,22.17
2023-02-09T05:22:38.653Z,23.73
2023-02-09T05:25:08.237Z,21.50
2023-02-09T05:27:36.249Z,24.03
2023-02-09T05:30:04.334Z,26.23
2023-02-09T05:32:32.261Z,22.50
2023-02-09T05:35:00.173Z,24.87
2023-02-09T05:37:27.992Z,25.23
2023-02-09T05:39:55.883Z,23.00
2023-02-09T05:42:27.411Z,22.07
2023-02-09T05:44:55.472Z,21.70
2023-02-09T05:47:25.473Z,26.73
2023-02-09T05:49:53.909Z,21.33
2023-02-09T05:52:22.056Z,24.23
2023-02-09T05:54:49.988Z,23.57
2023-02-09T05:57:18.448Z,22.87
2023-02-09T05:59:48.719Z,24.60
2023-02-09T06:02:16.635Z,26.27
2023-02-09T06:04:44.590Z,31.67
2023-02-09T06:07:15.539Z,29.67
2023-02-09T06:09:43.354Z,34.40
2023-02-09T06:12:11.189Z,32.73
2023-02-09T06:14:39.081Z,25.50
2023-02-09T06:17:09.394Z,25.07
2023-02-09T06:19:37.339Z,23.20
2023-02-09T06:22:05.378Z,22.17
2023-02-09T06:24:33.233Z,23.70
2023-02-09T06:27:01.545Z,24.47
2023-02-09T06:29:29.418Z,30.33
2023-02-09T06:31:59.423Z,24.83
2023-02-09T06:34:33.457Z,24.90
2023-02-09T06:37:14.296Z,31.30
2023-02-09T06:39:42.132Z,66.70
2023-02-09T06:42:10.043Z,30.20
2023-02-09T06:44:39.007Z,24.63
2023-02-09T06:47:06.915Z,27.90
2023-02-09T06:49:36.343Z,28.67
2023-02-09T06:52:04.704Z,33.63
2023-02-09T06:54:32.693Z,38.77
2023-02-09T06:57:00.718Z,31.60
2023-02-09T06:59:28.530Z,32.30
2023-02-09T07:01:56.451Z,30.33
2023-02-09T07:04:38.132Z,27.43
2023-02-09T07:07:09.257Z,26.47
2023-02-09T07:09:37.160Z,22.13
2023-02-09T07:12:12.002Z,23.47
2023-02-09T07:14:39.824Z,22.03
2023-02-09T07:17:08.062Z,20.50
2023-02-09T07:19:37.659Z,21.80
2023-02-09T07:22:08.440Z,23.47
2023-02-09T07:24:36.252Z,20.93
2023-02-09T07:27:05.333Z,22.03
2023-02-09T07:29:33.240Z,23.47
2023-02-09T07:32:02.185Z,25.90
2023-02-09T07:34:30.112Z,21.83
2023-02-09T07:36:59.357Z,26.47
2023-02-09T07:39:27.858Z,28.50
2023-02-09T07:41:57.119Z,28.63
2023-02-09T07:44:25.501Z,25.93
2023-02-09T07:46:54.432Z,22.80
2023-02-09T07:49:22.424Z,27.77
2023-02-09T07:51:51.437Z,30.13
2023-02-09T07:54:21.301Z,23.93
2023-02-09T07:56:49.158Z,25.60
2023-02-09T07:59:20.153Z,29.20
2023-02-09T08:01:49.553Z,22.80
2023-02-09T08:04:17.379Z,23.37
2023-02-09T08:06:46.639Z,24.23
2023-02-09T08:09:17.438Z,22.00
2023-02-09T08:11:49.555Z,22.67
2023-02-09T08:14:20.872Z,22.23
2023-02-09T08:16:50.710Z,26.33
2023-02-09T08:19:23.823Z,25.37
2023-02-09T08:21:52.616Z,24.77
2023-02-09T08:24:22.379Z,23.53
2023-02-09T08:26:51.608Z,25.77
2023-02-09T08:29:19.537Z,27.10
2023-02-09T08:31:48.484Z,22.27
2023-02-09T08:34:16.385Z,25.70
2023-02-09T08:36:44.217Z,23.13
2023-02-09T08:39:12.125Z,28.30
2023-02-09T08:41:39.962Z,21.93
2023-02-09T08:44:09.117Z,23.93
2023-02-09T08:46:37.423Z,25.60
2023-02-09T08:49:05.501Z,22.93
2023-02-09T08:51:37.233Z,25.93
2023-02-09T08:54:05.048Z,27.23
2023-02-09T08:56:32.892Z,25.83
2023-02-09T08:59:00.713Z,25.37
2023-02-09T09:01:30.081Z,28.23
2023-02-09T09:03:59.322Z,25.43
2023-02-09T09:06:27.435Z,26.70
2023-02-09T09:08:55.266Z,26.17
2023-02-09T09:11:23.120Z,27.90
2023-02-09T09:13:50.956Z,28.70
2023-02-09T09:16:21.161Z,24.53
2023-02-09T09:18:50.837Z,27.40
2023-02-09T09:21:20.140Z,27.60
2023-02-09T09:23:48.589Z,25.70
2023-02-09T09:26:17.347Z,27.37
2023-02-09T09:28:45.314Z,27.47
2023-02-09T09:31:19.198Z,25.90
2023-02-09T09:33:52.861Z,26.10
2023-02-09T09:36:20.916Z,26.23
2023-02-09T09:38:49.402Z,30.37
2023-02-09T09:41:25.143Z,25.23
2023-02-09T09:43:55.606Z,25.70
2023-02-09T09:46:27.974Z,27.87
2023-02-09T09:48:59.214Z,26.20
2023-02-09T09:51:35.752Z,27.40
2023-02-09T09:54:06.227Z,27.03
2023-02-09T09:56:36.249Z,23.90
2023-02-09T09:59:04.107Z,25.70
2023-02-09T10:01:33.827Z,23.30
2023-02-09T10:04:07.814Z,25.83
2023-02-09T10:06:35.792Z,27.73
2023-02-09T10:09:06.420Z,28.03
2023-02-09T10:11:39.866Z,31.00
2023-02-09T10:14:15.775Z,29.40
2023-02-09T10:16:45.654Z,29.67
2023-02-09T10:19:21.858Z,26.57
2023-02-09T10:21:50.438Z,27.93
2023-02-09T10:24:23.076Z,27.63
2023-02-09T10:27:04.964Z,28.70
2023-02-09T10:29:32.783Z,27.63
2023-02-09T10:32:06.186Z,25.83
2023-02-09T10:34:45.054Z,28.80
2023-02-09T10:37:20.903Z,27.67
2023-02-09T10:39:55.960Z,24.23
2023-02-09T10:42:28.037Z,26.80
2023-02-09T10:44:57.954Z,27.03
2023-02-09T10:47:29.631Z,27.47
2023-02-09T10:50:03.698Z,27.53
2023-02-09T10:52:36.445Z,26.20
2023-02-09T10:55:07.766Z,27.47
2023-02-09T10:57:37.722Z,28.47
2023-02-09T11:00:28.526Z,28.37
2023-02-09T11:03:01.592Z,26.03
2023-02-09T11:05:35.369Z,27.03
2023-02-09T11:08:14.964Z,28.80
2023-02-09T11:10:59.015Z,25.03
2023-02-09T11:13:27.773Z,25.37
2023-02-09T11:16:23.803Z,25.37
2023-02-09T11:19:01.288Z,27.33
2023-02-09T11:21:44.380Z,29.90
2023-02-09T11:24:26.195Z,26.20
2023-02-09T11:26:58.205Z,26.83
2023-02-09T11:29:31.194Z,30.27
2023-02-09T11:32:14.196Z,27.83
2023-02-09T11:34:53.958Z,25.37
2023-02-09T11:37:41.510Z,24.73
2023-02-09T11:40:23.433Z,25.90
2023-02-09T11:42:59.969Z,27.60
2023-02-09T11:45:33.559Z,25.43
2023-02-09T11:48:08.573Z,24.87
2023-02-09T11:50:44.250Z,27.87
2023-02-09T11:53:23.063Z,24.90
2023-02-09T11:55:56.200Z,28.27
2023-02-09T11:58:34.566Z,25.47
2023-02-09T12:01:15.453Z,26.53
2023-02-09T12:04:04.159Z,27.33
2023-02-09T12:06:39.454Z,28.93
2023-02-09T12:09:23.066Z,28.37
2023-02-09T12:12:02.404Z,27.10
2023-02-09T12:14:45.805Z,30.63
2023-02-09T12:17:16.210Z,26.13
2023-02-09T12:19:46.353Z,26.50
2023-02-09T12:22:43.729Z,27.20
2023-02-09T12:25:21.596Z,28.70
2023-02-09T12:28:14.045Z,23.87
2023-02-09T12:31:04.942Z,26.97
2023-02-09T12:33:35.578Z,30.00
2023-02-09T12:36:06.122Z,30.53
2023-02-09T12:39:04.714Z,26.83
2023-02-09T12:42:12.792Z,29.87
2023-02-09T12:44:55.677Z,26.13
2023-02-09T12:47:58.666Z,30.03
2023-02-09T12:50:47.546Z,27.43
2023-02-09T12:53:41.241Z,27.73
2023-02-09T12:56:29.831Z,25.47
2023-02-09T12:59:14.906Z,25.73
2023-02-09T13:02:19.148Z,26.43
2023-02-09T13:04:59.174Z,23.87
2023-02-09T13:07:36.633Z,29.87
2023-02-09T13:10:19.806Z,25.47
2023-02-09T13:12:53.725Z,28.80
2023-02-09T13:15:23.021Z,26.07
2023-02-09T13:18:07.737Z,28.67
2023-02-09T13:21:13.912Z,25.73
2023-02-09T13:23:54.573Z,23.80
2023-02-09T13:26:24.718Z,25.63
2023-02-09T13:29:19.215Z,27.30
2023-02-09T13:32:00.294Z,26.40
2023-02-09T13:34:35.915Z,24.40
2023-02-09T13:37:28.080Z,25.00
2023-02-09T13:40:00.692Z,26.10
2023-02-09T13:42:30.624Z,26.33
2023-02-09T13:44:59.987Z,25.10
2023-02-09T13:47:30.080Z,24.87
2023-02-09T13:50:00.719Z,25.93
2023-02-09T13:52:35.320Z,25.93
2023-02-09T13:55:13.753Z,23.90
2023-02-09T13:57:43.639Z,28.40
2023-02-09T14:00:21.921Z,27.03
2023-02-09T14:02:54.214Z,27.23
2023-02-09T14:05:31.750Z,27.83
2023-02-09T14:08:00.497Z,22.60
2023-02-09T14:10:29.867Z,22.67
2023-02-09T14:13:01.805Z,27.03
2023-02-09T14:15:56.001Z,22.40
2023-02-09T14:18:35.031Z,22.87
2023-02-09T14:21:15.524Z,22.67
2023-02-09T14:23:45.256Z,22.93
2023-02-09T14:26:23.870Z,31.60
2023-02-09T14:28:55.939Z,33.23
2023-02-09T14:31:25.992Z,34.67
2023-02-09T14:33:57.448Z,25.10
2023-02-09T14:36:33.358Z,28.33
2023-02-09T14:39:16.549Z,29.97
2023-02-09T14:41:56.491Z,33.83
2023-02-09T14:44:25.076Z,30.03
2023-02-09T14:46:54.515Z,24.27
2023-02-09T14:49:24.616Z,29.23
2023-02-09T14:52:02.094Z,23.85
2023-02-09T14:54:32.202Z,22.60
2023-02-09T14:57:03.565Z,23.85
2023-02-09T14:59:31.735Z,21.95
2023-02-09T15:01:59.641Z,21.60
2023-02-09T15:04:28.816Z,22.35
2023-02-09T15:07:04.442Z,23.20
2023-02-09T15:09:36.962Z,25.05
2023-02-09T15:12:05.805Z,22.10
2023-02-09T15:14:38.273Z,22.48
2023-02-09T15:17:17.856Z,24.80
2023-02-09T15:19:47.969Z,20.70
2023-02-09T15:22:17.127Z,22.85
2023-02-09T15:24:45.852Z,24.33
2023-02-09T15:27:23.828Z,23.35
2023-02-09T15:29:52.152Z,23.48
2023-02-09T15:32:22.248Z,26.08
2023-02-09T15:34:52.184Z,24.27
2023-02-09T15:37:23.985Z,23.48
2023-02-09T15:39:54.676Z,22.17
2023-02-09T15:42:39.896Z,27.33
2023-02-09T15:45:36.096Z,27.60
2023-02-09T15:48:04.744Z,27.80
2023-02-09T15:50:35.240Z,25.80
2023-02-09T15:53:05.872Z,27.37
2023-02-09T15:55:34.710Z,22.50
2023-02-09T15:58:02.977Z,24.43
2023-02-09T16:00:32.159Z,24.40
2023-02-09T16:03:01.481Z,24.13
2023-02-09T16:05:31.064Z,29.60
2023-02-09T16:08:00.791Z,25.13
2023-02-09T16:10:30.661Z,23.83
2023-02-09T16:12:58.579Z,24.87
2023-02-09T16:15:27.452Z,21.33
2023-02-09T16:17:55.269Z,25.33
2023-02-09T16:20:25.781Z,25.60
2023-02-09T16:22:55.527Z,23.00
2023-02-09T16:25:26.683Z,28.53
2023-02-09T16:27:56.147Z,24.37
2023-02-09T16:30:25.875Z,25.50
2023-02-09T16:32:53.860Z,27.43
2023-02-09T16:35:23.066Z,30.60
2023-02-09T16:37:52.581Z,29.90
2023-02-09T16:40:26.644Z,30.23
2023-02-09T16:42:55.891Z,31.43
2023-02-09T16:45:24.493Z,30.47
2023-02-09T16:47:54.978Z,27.73
2023-02-09T16:50:26.464Z,29.40
2023-02-09T16:52:56.288Z,26.48
2023-02-09T16:55:30.494Z,30.77
2023-02-09T16:58:01.417Z,28.92
2023-02-09T17:00:31.772Z,27.90
2023-02-09T17:03:03.704Z,27.97
2023-02-09T17:05:34.814Z,27.80
2023-02-09T17:08:04.703Z,25.53
2023-02-09T17:10:36.197Z,30.17
2023-02-09T17:13:04.632Z,28.37
2023-02-09T17:15:39.257Z,27.80
2023-02-09T17:18:09.176Z,26.30
2023-02-09T17:20:41.300Z,28.20
2023-02-09T17:23:15.001Z,27.93
2023-02-09T17:25:44.850Z,26.80
2023-02-09T17:28:13.019Z,26.40
2023-02-09T17:30:42.302Z,27.47
2023-02-09T17:33:19.266Z,27.33
2023-02-09T17:36:22.301Z,33.20
2023-02-09T17:38:36.838Z,31.47
2023-02-09T17:41:13.058Z,31.23
2023-02-09T17:43:40.951Z,30.30
2023-02-09T17:46:11.333Z,30.27
2023-02-09T17:48:39.441Z,26.10
2023-02-09T17:51:09.566Z,31.70
2023-02-09T17:53:38.016Z,27.37
2023-02-09T17:56:08.610Z,28.53
2023-02-09T17:58:36.466Z,30.90
2023-02-09T18:01:14.302Z,27.57
2023-02-09T18:03:42.116Z,26.80
2023-02-09T18:06:11.405Z,30.35
2023-02-09T18:08:39.249Z,38.67
2023-02-09T18:11:13.686Z,34.00
2023-02-09T18:13:41.571Z,32.07
2023-02-09T18:16:10.078Z,36.20
2023-02-09T18:18:38.478Z,40.67
2023-02-09T18:21:06.663Z,39.10
2023-02-09T18:23:34.460Z,37.27
2023-02-09T18:26:02.601Z,35.80
2023-02-09T18:28:32.123Z,34.43
2023-02-09T18:31:00.086Z,33.60
2023-02-09T18:33:28.009Z,36.03
2023-02-09T18:35:55.876Z,35.77
2023-02-09T18:38:23.701Z,35.57
2023-02-09T18:40:53.159Z,36.73
2023-02-09T18:43:20.975Z,36.90
2023-02-09T18:45:50.118Z,39.63
2023-02-09T18:48:17.980Z,37.43
2023-02-09T18:50:45.789Z,37.23
2023-02-09T18:53:15.524Z,36.23
2023-02-09T18:55:43.409Z,35.40
2023-02-09T18:58:12.804Z,37.53
2023-02-09T19:00:40.635Z,37.80
2023-02-09T19:03:11.369Z,44.60
2023-02-09T19:05:39.271Z,56.23
2023-02-09T19:08:08.032Z,45.30
2023-02-09T19:10:36.044Z,42.67
2023-02-09T19:13:04.553Z,44.33
2023-02-09T19:15:33.304Z,52.97
2023-02-09T19:18:01.251Z,45.10
2023-02-09T19:20:33.907Z,47.23
2023-02-09T19:23:02.433Z,44.63
2023-02-09T19:25:31.385Z,47.20
2023-02-09T19:27:59.229Z,42.20
2023-02-09T19:30:28.508Z,44.50
2023-02-09T19:32:58.615Z,52.67
2023-02-09T19:35:29.108Z,63.00
2023-02-09T19:37:59.094Z,67.07
2023-02-09T19:40:36.257Z,62.73
2023-02-09T19:43:04.847Z,53.53
2023-02-09T19:45:37.267Z,54.07
2023-02-09T19:48:06.178Z,53.00
2023-02-09T19:50:34.360Z,42.53
2023-02-09T19:53:03.730Z,44.20
2023-02-09T19:55:31.725Z,44.03
2023-02-09T19:57:59.556Z,39.23
2023-02-09T20:00:27.550Z,33.77
2023-02-09T20:02:55.485Z,35.40
2023-02-09T20:05:23.334Z,36.17
2023-02-09T20:07:53.543Z,42.80
2023-02-09T20:10:23.937Z,36.93
2023-02-09T20:12:52.170Z,37.30
2023-02-09T20:15:20.079Z,39.63
2023-02-09T20:20:20.857Z,33.53
2023-02-09T20:22:50.132Z,37.63
2023-02-09T20:25:18.797Z,36.97
2023-02-09T20:27:50.629Z,38.33
2023-02-09T20:30:19.221Z,37.23
2023-02-09T20:32:47.280Z,36.93
2023-02-09T20:35:15.138Z,38.23
2023-02-09T20:37:43.185Z,42.33
2023-02-09T20:40:12.123Z,43.83
2023-02-09T20:42:57.544Z,41.13
2023-02-09T20:45:44.119Z,46.47
2023-02-09T20:48:11.990Z,45.43
2023-02-09T20:50:39.860Z,47.07
2023-02-09T20:53:07.784Z,41.10
2023-02-09T20:55:35.596Z,39.40
2023-02-09T20:58:03.530Z,38.13
2023-02-09T21:00:32.730Z,38.73
2023-02-09T21:03:00.631Z,39.73
2023-02-09T21:05:28.658Z,40.57
2023-02-09T21:07:56.822Z,34.03
2023-02-09T21:10:24.818Z,36.53
2023-02-09T21:12:52.915Z,39.13
2023-02-09T21:15:20.831Z,37.70
2023-02-09T21:17:51.557Z,43.57
2023-02-09T21:20:19.533Z,39.03
2023-02-09T21:22:47.399Z,37.23
2023-02-09T21:25:15.248Z,35.00
2023-02-09T21:27:43.078Z,40.37
2023-02-09T21:30:12.132Z,39.73
2023-02-09T21:32:40.049Z,41.90
2023-02-09T21:35:10.347Z,35.47
2023-02-09T21:37:39.258Z,36.33
2023-02-09T21:40:07.747Z,30.37
2023-02-09T21:42:36.875Z,34.83
2023-02-09T21:45:06.339Z,39.10
2023-02-09T21:47:37.777Z,34.40
2023-02-09T21:50:06.737Z,34.10
2023-02-09T21:52:36.121Z,32.27
2023-02-09T21:55:04.954Z,34.70
2023-02-09T21:57:32.956Z,37.33
2023-02-09T22:00:05.277Z,48.00
2023-02-09T22:02:33.108Z,50.40
2023-02-09T22:05:01.124Z,49.33
2023-02-09T22:07:29.105Z,50.13
2023-02-09T22:09:58.544Z,47.03
2023-02-09T22:12:26.532Z,53.93
2023-02-09T22:14:54.460Z,55.60
2023-02-09T22:17:22.377Z,71.47
2023-02-09T22:19:50.257Z,46.73
2023-02-09T22:22:18.052Z,45.33
2023-02-09T22:24:46.045Z,63.27
2023-02-09T22:27:15.255Z,45.60
2023-02-09T22:29:44.182Z,38.33
2023-02-09T22:32:12.014Z,54.13
2023-02-09T22:34:39.985Z,86.50
2023-02-09T22:37:07.899Z,91.10
2023-02-09T22:39:35.744Z,48.97
2023-02-09T22:42:03.705Z,53.47
2023-02-09T22:44:33.397Z,75.43
2023-02-09T22:47:01.409Z,68.33
2023-02-09T22:49:29.342Z,65.97
2023-02-09T22:51:57.201Z,57.63
2023-02-09T22:54:25.038Z,47.43
2023-02-09T22:56:53.092Z,48.33
2023-02-09T22:59:21.021Z,41.80
